createdAt,value
2023-05-11T00:01:45.119Z,30.2
2023-05-11T00:07:22.212Z,30.1
2023-05-11T00:12:58.406Z,30.1
2023-05-11T00:18:19.681Z,30.1
2023-05-11T00:23:56.350Z,30.1
2023-05-11T00:29:32.721Z,30.1
2023-05-11T00:34:54.762Z,30
2023-05-11T00:40:33.925Z,30
2023-05-11T00:46:10.194Z,29.9
2023-05-11T00:51:46.366Z,29.9
2023-05-11T00:57:22.464Z,29.9
2023-05-11T01:02:59.303Z,30
2023-05-11T01:08:35.783Z,30.6
2023-05-11T01:14:27.684Z,31.1
2023-05-11T01:20:04.408Z,31.9
2023-05-11T01:25:40.114Z,32.6
2023-05-11T01:31:31.719Z,33.3
2023-05-11T01:37:25.919Z,34
2023-05-11T01:43:16.763Z,34.8
2023-05-11T01:49:09.186Z,35.6
2023-05-11T01:54:45.332Z,36.3
2023-05-11T02:00:36.498Z,37.1
2023-05-11T02:06:28.823Z,37.7
2023-05-11T02:12:20.460Z,38.4
2023-05-11T02:18:12.717Z,39.1
2023-05-11T02:24:04.319Z,39.8
2023-05-11T02:29:40.620Z,40.6
2023-05-11T02:35:32.816Z,41.1
2023-05-11T02:41:25.100Z,41.4
2023-05-11T02:47:17.009Z,41.4
2023-05-11T02:53:09.370Z,41.4
2023-05-11T02:59:01.029Z,41.4
2023-05-11T03:04:55.534Z,41.5
2023-05-11T03:10:48.863Z,41.5
2023-05-11T03:16:40.500Z,41.4
2023-05-11T03:22:33.047Z,41.4
2023-05-11T03:28:24.069Z,41.4
2023-05-11T03:34:19.516Z,41.3
2023-05-11T03:40:10.905Z,41.3
2023-05-11T03:46:04.201Z,41.3
2023-05-11T03:51:56.675Z,41.2
2023-05-11T03:57:48.127Z,41.2
2023-05-11T04:03:40.489Z,41.1
2023-05-11T04:09:33.097Z,41.1
2023-05-11T04:15:24.472Z,41.1
2023-05-11T04:21:16.515Z,40.9
2023-05-11T04:27:08.412Z,40.8
2023-05-11T04:32:59.737Z,40.7
2023-05-11T04:38:50.715Z,40.7
2023-05-11T04:44:42.793Z,40.7
2023-05-11T04:50:34.841Z,40.6
2023-05-11T04:56:11.377Z,40.6
2023-05-11T05:01:47.684Z,40.5
2023-05-11T05:07:26.251Z,40.5
2023-05-11T05:13:01.901Z,40.4
2023-05-11T05:18:53.140Z,40.4
2023-05-11T05:24:45.107Z,40.3
2023-05-11T05:30:36.785Z,40.3
2023-05-11T05:36:13.522Z,40.1
2023-05-11T05:41:49.732Z,40.1
2023-05-11T05:47:43.586Z,40
2023-05-11T05:53:34.805Z,39.9
2023-05-11T05:59:28.488Z,39.9
2023-05-11T06:05:24.154Z,39.8
2023-05-11T06:11:18.498Z,39.8
2023-05-11T06:17:10.387Z,39.7
2023-05-11T06:23:01.980Z,39.6
2023-05-11T06:28:56.579Z,39.6
2023-05-11T06:34:18.341Z,39.5
2023-05-11T06:39:54.894Z,39.4
2023-05-11T06:45:47.321Z,39.4
2023-05-11T06:51:43.122Z,39.1
2023-05-11T06:57:34.291Z,38.9
2023-05-11T07:03:26.465Z,38.9
2023-05-11T07:09:18.832Z,38.7
2023-05-11T07:15:11.111Z,38.4
2023-05-11T07:20:48.277Z,38.1
2023-05-11T07:26:09.064Z,37.9
2023-05-11T07:31:46.497Z,37.6
2023-05-11T07:37:23.420Z,37.4
2023-05-11T07:43:18.285Z,37.3
2023-05-11T07:49:39.793Z,37.2
2023-05-11T07:55:20.759Z,37.1
2023-05-11T08:01:13.286Z,37
2023-05-11T08:07:06.244Z,36.9
2023-05-11T08:12:45.545Z,36.8
2023-05-11T08:18:37.880Z,36.8
2023-05-11T08:24:32.998Z,36.7
2023-05-11T08:30:11.439Z,36.6
2023-05-11T08:36:00.059Z,36.5
2023-05-11T08:41:53.424Z,36.4
2023-05-11T08:48:03.805Z,36.4
2023-05-11T08:53:55.822Z,36.3
2023-05-11T08:59:48.388Z,34.6
2023-05-11T09:05:41.065Z,40.6
2023-05-11T09:11:19.785Z,38.1
2023-05-11T09:17:34.552Z,36.5
2023-05-11T09:22:55.937Z,35.3
2023-05-11T09:29:02.307Z,34.3
2023-05-11T09:34:43.042Z,33.6
2023-05-11T09:40:59.829Z,42.4
2023-05-11T09:46:40.644Z,38.3
2023-05-11T09:52:39.048Z,35.4
2023-05-11T09:58:14.774Z,41.1
2023-05-11T10:03:52.219Z,41.1
2023-05-11T10:09:44.557Z,39.3
2023-05-11T10:15:24.631Z,38.1
2023-05-11T10:21:17.563Z,37.6
2023-05-11T10:27:11.123Z,37.8
2023-05-11T10:33:03.281Z,38.3
2023-05-11T10:38:54.653Z,39.3
2023-05-11T10:44:46.941Z,40.1
2023-05-11T10:50:43.246Z,40.4
2023-05-11T10:56:36.392Z,41.3
2023-05-11T11:02:28.947Z,41.7
2023-05-11T11:08:20.794Z,42.4
2023-05-11T11:14:13.226Z,42.9
2023-05-11T11:20:06.223Z,43.1
2023-05-11T11:25:56.949Z,44.2
2023-05-11T11:31:48.475Z,44.3
2023-05-11T11:37:39.630Z,44.3
2023-05-11T11:43:54.296Z,43.9
2023-05-11T11:49:46.874Z,44
2023-05-11T11:55:39.197Z,44
2023-05-11T12:01:32.286Z,44.1
2023-05-11T12:07:25.653Z,43.6
2023-05-11T12:13:17.699Z,43.2
2023-05-11T12:19:09.554Z,42.9
2023-05-11T12:25:00.990Z,42.4
2023-05-11T12:30:52.779Z,42.3
2023-05-11T12:36:44.460Z,42
2023-05-11T12:42:35.876Z,41.4
2023-05-11T12:48:27.467Z,41.1
2023-05-11T12:54:18.755Z,40.8
2023-05-11T13:00:10.634Z,40.3
2023-05-11T13:05:47.227Z,39.9
2023-05-11T13:11:39.053Z,39.7
2023-05-11T13:17:33.741Z,39.4
2023-05-11T13:23:25.568Z,39.1
2023-05-11T13:29:30.663Z,38.7
2023-05-11T13:35:07.743Z,38.3
2023-05-11T13:40:58.696Z,38
2023-05-11T13:46:50.871Z,37.8
2023-05-11T13:52:45.991Z,37.3
2023-05-11T13:58:37.463Z,36.9
2023-05-11T14:04:47.398Z,36.4
2023-05-11T14:10:54.603Z,36.1
2023-05-11T14:16:47.076Z,35.8
2023-05-11T14:22:41.162Z,35.4
2023-05-11T14:28:41.134Z,35.1
2023-05-11T14:34:35.960Z,34.8
2023-05-11T14:40:28.900Z,34.5
2023-05-11T14:46:21.282Z,34.1
2023-05-11T14:52:13.243Z,33.7
2023-05-11T14:58:05.413Z,33.1
2023-05-11T15:04:12.919Z,31.6
2023-05-11T15:10:20.821Z,30.8
2023-05-11T15:16:12.894Z,30
2023-05-11T15:22:06.318Z,29.5
2023-05-11T15:27:59.000Z,28.9
2023-05-11T15:33:54.162Z,28.4
2023-05-11T15:40:02.805Z,27.9
2023-05-11T15:45:56.091Z,27.4
2023-05-11T15:51:35.470Z,26.6
2023-05-11T15:57:28.583Z,26.1
2023-05-11T16:03:23.998Z,25.7
2023-05-11T16:09:17.818Z,25.4
2023-05-11T16:15:12.753Z,25.1
2023-05-11T16:21:09.877Z,24.9
2023-05-11T16:27:05.297Z,24.7
2023-05-11T16:33:15.030Z,24.5
2023-05-11T16:39:11.871Z,24.4
2023-05-11T16:45:05.992Z,24.3
2023-05-11T16:51:04.265Z,24.2
2023-05-11T16:57:04.346Z,24.1
2023-05-11T17:03:07.552Z,23.9
2023-05-11T17:09:07.747Z,23.8
2023-05-11T17:15:08.268Z,23.8
2023-05-11T17:21:09.350Z,23.7
2023-05-11T17:27:21.628Z,23.5
2023-05-11T17:33:52.288Z,23.3
2023-05-11T17:40:04.889Z,23.2
2023-05-11T17:46:06.551Z,23.1
2023-05-11T17:52:07.637Z,23.1
2023-05-11T17:58:08.531Z,23
2023-05-11T18:04:10.649Z,22.9
2023-05-11T18:10:25.557Z,22.9
2023-05-11T18:16:27.930Z,22.8
2023-05-11T18:22:15.065Z,22.8
2023-05-11T18:28:14.653Z,22.8
2023-05-11T18:33:59.389Z,22.7
2023-05-11T18:40:01.169Z,22.7
2023-05-11T18:46:01.590Z,22.7
2023-05-11T18:52:04.847Z,22.6
2023-05-11T18:58:21.133Z,22.6
2023-05-11T19:04:34.177Z,22.6
2023-05-11T19:10:36.532Z,22.6
2023-05-11T19:16:38.787Z,23.4
2023-05-11T19:22:43.061Z,25.8
2023-05-11T19:28:52.825Z,25.6
2023-05-11T19:34:54.778Z,24.2
2023-05-11T19:41:34.186Z,24.1
2023-05-11T19:47:48.400Z,25.4
2023-05-11T19:53:53.228Z,27.2
2023-05-11T20:03:51.736Z,29.4
2023-05-11T20:09:56.112Z,30.4
2023-05-11T20:15:56.854Z,31.2
2023-05-11T20:21:58.419Z,31.6
2023-05-11T20:27:59.689Z,31.8
2023-05-11T20:34:14.123Z,31.9
2023-05-11T20:40:13.388Z,32.1
2023-05-11T20:46:13.964Z,32.1
2023-05-11T20:52:33.434Z,32.2
2023-05-11T20:58:33.919Z,32.2
2023-05-11T21:04:42.371Z,32.2
2023-05-11T21:10:40.669Z,32.2
2023-05-11T21:16:38.282Z,32.2
2023-05-11T21:22:36.215Z,32.1
2023-05-11T21:28:15.651Z,32.1
2023-05-11T21:33:53.843Z,32.1
2023-05-11T21:39:16.681Z,32.1
2023-05-11T21:44:53.142Z,32.1
2023-05-11T21:50:13.203Z,32.1
2023-05-11T21:55:49.861Z,32.1
2023-05-11T22:01:26.950Z,32
2023-05-11T22:07:03.665Z,32
2023-05-11T22:12:47.836Z,32
2023-05-11T22:18:23.863Z,31.9
2023-05-11T22:23:59.632Z,31.9
2023-05-11T22:29:36.102Z,31.9
2023-05-11T22:35:12.490Z,31.9
2023-05-11T22:40:33.020Z,31.8
2023-05-11T22:45:54.355Z,31.8
2023-05-11T22:51:14.856Z,31.8
2023-05-11T22:56:35.651Z,31.8
2023-05-11T23:01:42.323Z,31.8
2023-05-11T23:07:03.920Z,31.7
2023-05-11T23:12:39.642Z,31.7
2023-05-11T23:18:00.651Z,31.6
2023-05-11T23:23:21.929Z,31.6
2023-05-11T23:28:26.616Z,31.6
2023-05-11T23:33:48.433Z,31.6
2023-05-11T23:39:09.725Z,31.6
2023-05-11T23:44:31.065Z,31.5
2023-05-11T23:50:07.562Z,31.5
2023-05-11T23:55:28.305Z,31.4
